sensor_id;sensor_type;location;lat;lon;timestamp;P1;durP1;ratioP1;P2;durP2;ratioP2
69789;SDS011;57064;52.046;4.800;2023-10-08T00:00:22;12.70;;;4.55;;
69789;SDS011;57064;52.046;4.800;2023-10-08T00:03:10;19.52;;;5.45;;
69789;SDS011;57064;52.046;4.800;2023-10-08T00:05:38;23.10;;;5.85;;
69789;SDS011;57064;52.046;4.800;2023-10-08T00:08:05;21.95;;;5.82;;
69789;SDS011;57064;52.046;4.800;2023-10-08T00:10:35;25.23;;;6.68;;
69789;SDS011;57064;52.046;4.800;2023-10-08T00:13:04;20.10;;;5.80;;
69789;SDS011;57064;52.046;4.800;2023-10-08T00:15:35;19.65;;;5.40;;
69789;SDS011;57064;52.046;4.800;2023-10-08T00:18:04;14.98;;;5.22;;
69789;SDS011;57064;52.046;4.800;2023-10-08T00:20:31;22.02;;;6.18;;
69789;SDS011;57064;52.046;4.800;2023-10-08T00:23:08;17.42;;;5.82;;
69789;SDS011;57064;52.046;4.800;2023-10-08T00:25:34;20.25;;;6.15;;
69789;SDS011;57064;52.046;4.800;2023-10-08T00:28:06;21.10;;;5.40;;
69789;SDS011;57064;52.046;4.800;2023-10-08T00:30:42;15.60;;;5.30;;
69789;SDS011;57064;52.046;4.800;2023-10-08T00:33:11;18.40;;;5.43;;
69789;SDS011;57064;52.046;4.800;2023-10-08T00:35:38;17.52;;;5.38;;
69789;SDS011;57064;52.046;4.800;2023-10-08T00:38:06;16.80;;;5.25;;
69789;SDS011;57064;52.046;4.800;2023-10-08T00:40:40;19.92;;;5.30;;
69789;SDS011;57064;52.046;4.800;2023-10-08T00:43:11;24.40;;;6.20;;
69789;SDS011;57064;52.046;4.800;2023-10-08T00:45:59;18.40;;;5.75;;
69789;SDS011;57064;52.046;4.800;2023-10-08T00:48:47;18.30;;;4.75;;
69789;SDS011;57064;52.046;4.800;2023-10-08T00:51:14;22.77;;;6.03;;
69789;SDS011;57064;52.046;4.800;2023-10-08T00:53:46;15.77;;;5.85;;
69789;SDS011;57064;52.046;4.800;2023-10-08T00:56:25;16.27;;;5.55;;
69789;SDS011;57064;52.046;4.800;2023-10-08T00:59:09;18.42;;;5.97;;
69789;SDS011;57064;52.046;4.800;2023-10-08T01:01:40;18.73;;;6.15;;
69789;SDS011;57064;52.046;4.800;2023-10-08T01:04:19;22.27;;;6.43;;
69789;SDS011;57064;52.046;4.800;2023-10-08T01:06:52;23.55;;;5.30;;
69789;SDS011;57064;52.046;4.800;2023-10-08T01:09:26;17.92;;;5.03;;
69789;SDS011;57064;52.046;4.800;2023-10-08T01:12:06;23.33;;;6.60;;
69789;SDS011;57064;52.046;4.800;2023-10-08T01:14:46;19.58;;;5.50;;
69789;SDS011;57064;52.046;4.800;2023-10-08T01:17:14;25.52;;;7.28;;
69789;SDS011;57064;52.046;4.800;2023-10-08T01:19:43;20.23;;;5.93;;
69789;SDS011;57064;52.046;4.800;2023-10-08T01:22:16;18.15;;;6.10;;
69789;SDS011;57064;52.046;4.800;2023-10-08T01:24:46;22.90;;;6.88;;
69789;SDS011;57064;52.046;4.800;2023-10-08T01:27:16;23.98;;;6.10;;
69789;SDS011;57064;52.046;4.800;2023-10-08T01:29:50;22.08;;;6.90;;
69789;SDS011;57064;52.046;4.800;2023-10-08T01:32:20;14.05;;;5.65;;
69789;SDS011;57064;52.046;4.800;2023-10-08T01:34:48;23.63;;;6.15;;
69789;SDS011;57064;52.046;4.800;2023-10-08T01:37:15;23.77;;;6.35;;
69789;SDS011;57064;52.046;4.800;2023-10-08T01:39:42;17.45;;;5.63;;
69789;SDS011;57064;52.046;4.800;2023-10-08T01:42:14;21.52;;;6.85;;
69789;SDS011;57064;52.046;4.800;2023-10-08T01:44:45;20.65;;;6.28;;
69789;SDS011;57064;52.046;4.800;2023-10-08T01:47:13;18.45;;;6.53;;
69789;SDS011;57064;52.046;4.800;2023-10-08T01:49:41;20.65;;;7.18;;
69789;SDS011;57064;52.046;4.800;2023-10-08T01:52:11;21.08;;;6.88;;
69789;SDS011;57064;52.046;4.800;2023-10-08T01:54:56;23.35;;;7.43;;
69789;SDS011;57064;52.046;4.800;2023-10-08T01:57:23;18.85;;;8.38;;
69789;SDS011;57064;52.046;4.800;2023-10-08T01:59:49;18.63;;;7.53;;
69789;SDS011;57064;52.046;4.800;2023-10-08T02:02:15;24.98;;;6.70;;
69789;SDS011;57064;52.046;4.800;2023-10-08T02:04:41;25.42;;;7.70;;
69789;SDS011;57064;52.046;4.800;2023-10-08T02:07:08;26.77;;;7.55;;
69789;SDS011;57064;52.046;4.800;2023-10-08T02:09:38;20.23;;;6.25;;
69789;SDS011;57064;52.046;4.800;2023-10-08T02:12:04;15.88;;;6.72;;
69789;SDS011;57064;52.046;4.800;2023-10-08T02:14:30;18.92;;;7.25;;
69789;SDS011;57064;52.046;4.800;2023-10-08T02:17:00;25.95;;;7.30;;
69789;SDS011;57064;52.046;4.800;2023-10-08T02:19:34;19.48;;;6.97;;
69789;SDS011;57064;52.046;4.800;2023-10-08T02:22:02;20.38;;;7.22;;
69789;SDS011;57064;52.046;4.800;2023-10-08T02:24:34;22.25;;;6.80;;
69789;SDS011;57064;52.046;4.800;2023-10-08T02:27:01;23.65;;;7.68;;
69789;SDS011;57064;52.046;4.800;2023-10-08T02:29:28;25.40;;;7.07;;
69789;SDS011;57064;52.046;4.800;2023-10-08T02:31:58;24.05;;;6.97;;
69789;SDS011;57064;52.046;4.800;2023-10-08T02:34:24;27.92;;;7.00;;
69789;SDS011;57064;52.046;4.800;2023-10-08T02:36:51;23.52;;;7.65;;
69789;SDS011;57064;52.046;4.800;2023-10-08T02:39:17;18.73;;;7.25;;
69789;SDS011;57064;52.046;4.800;2023-10-08T02:41:50;24.52;;;8.25;;
69789;SDS011;57064;52.046;4.800;2023-10-08T02:44:16;22.00;;;7.70;;
69789;SDS011;57064;52.046;4.800;2023-10-08T02:46:43;17.85;;;6.93;;
69789;SDS011;57064;52.046;4.800;2023-10-08T02:49:12;23.25;;;8.48;;
69789;SDS011;57064;52.046;4.800;2023-10-08T02:51:45;19.85;;;8.60;;
69789;SDS011;57064;52.046;4.800;2023-10-08T02:54:15;21.35;;;7.30;;
69789;SDS011;57064;52.046;4.800;2023-10-08T02:57:02;26.17;;;8.20;;
69789;SDS011;57064;52.046;4.800;2023-10-08T02:59:30;28.10;;;8.50;;
69789;SDS011;57064;52.046;4.800;2023-10-08T03:02:06;24.23;;;8.70;;
69789;SDS011;57064;52.046;4.800;2023-10-08T03:04:43;22.92;;;8.20;;
69789;SDS011;57064;52.046;4.800;2023-10-08T03:07:15;25.08;;;8.70;;
69789;SDS011;57064;52.046;4.800;2023-10-08T03:09:48;23.70;;;7.88;;
69789;SDS011;57064;52.046;4.800;2023-10-08T03:12:15;24.02;;;8.82;;
69789;SDS011;57064;52.046;4.800;2023-10-08T03:14:42;21.35;;;8.10;;
69789;SDS011;57064;52.046;4.800;2023-10-08T03:17:27;26.15;;;9.40;;
69789;SDS011;57064;52.046;4.800;2023-10-08T03:19:54;23.80;;;8.70;;
69789;SDS011;57064;52.046;4.800;2023-10-08T03:22:43;24.30;;;8.13;;
69789;SDS011;57064;52.046;4.800;2023-10-08T03:25:11;21.83;;;9.55;;
69789;SDS011;57064;52.046;4.800;2023-10-08T03:27:42;26.02;;;9.27;;
69789;SDS011;57064;52.046;4.800;2023-10-08T03:30:09;24.85;;;9.50;;
69789;SDS011;57064;52.046;4.800;2023-10-08T03:32:41;19.73;;;8.80;;
69789;SDS011;57064;52.046;4.800;2023-10-08T03:35:10;26.65;;;10.05;;
69789;SDS011;57064;52.046;4.800;2023-10-08T03:37:37;26.52;;;10.05;;
69789;SDS011;57064;52.046;4.800;2023-10-08T03:40:11;29.95;;;9.88;;
69789;SDS011;57064;52.046;4.800;2023-10-08T03:43:07;25.83;;;10.45;;
69789;SDS011;57064;52.046;4.800;2023-10-08T03:45:45;25.30;;;10.20;;
69789;SDS011;57064;52.046;4.800;2023-10-08T03:48:34;23.83;;;10.05;;
69789;SDS011;57064;52.046;4.800;2023-10-08T03:51:02;25.50;;;10.57;;
69789;SDS011;57064;52.046;4.800;2023-10-08T03:53:34;22.05;;;9.95;;
69789;SDS011;57064;52.046;4.800;2023-10-08T03:56:07;26.15;;;9.75;;
69789;SDS011;57064;52.046;4.800;2023-10-08T03:58:34;35.28;;;10.32;;
69789;SDS011;57064;52.046;4.800;2023-10-08T04:01:06;22.95;;;9.18;;
69789;SDS011;57064;52.046;4.800;2023-10-08T04:03:42;24.35;;;9.10;;
69789;SDS011;57064;52.046;4.800;2023-10-08T04:06:24;33.85;;;10.05;;
69789;SDS011;57064;52.046;4.800;2023-10-08T04:09:00;30.27;;;10.00;;
69789;SDS011;57064;52.046;4.800;2023-10-08T04:11:41;27.65;;;9.70;;
69789;SDS011;57064;52.046;4.800;2023-10-08T04:14:17;26.45;;;10.13;;
69789;SDS011;57064;52.046;4.800;2023-10-08T04:16:44;23.77;;;9.45;;
69789;SDS011;57064;52.046;4.800;2023-10-08T04:19:10;25.75;;;10.10;;
69789;SDS011;57064;52.046;4.800;2023-10-08T04:21:37;27.98;;;10.55;;
69789;SDS011;57064;52.046;4.800;2023-10-08T04:24:06;30.63;;;11.40;;
69789;SDS011;57064;52.046;4.800;2023-10-08T04:26:33;27.92;;;10.82;;
69789;SDS011;57064;52.046;4.800;2023-10-08T04:29:00;26.05;;;11.68;;
69789;SDS011;57064;52.046;4.800;2023-10-08T04:31:32;35.65;;;12.70;;
69789;SDS011;57064;52.046;4.800;2023-10-08T04:34:09;29.58;;;11.80;;
69789;SDS011;57064;52.046;4.800;2023-10-08T04:36:47;31.10;;;12.02;;
69789;SDS011;57064;52.046;4.800;2023-10-08T04:39:21;25.52;;;10.65;;
69789;SDS011;57064;52.046;4.800;2023-10-08T04:41:51;31.50;;;10.88;;
69789;SDS011;57064;52.046;4.800;2023-10-08T04:44:24;26.25;;;9.93;;
69789;SDS011;57064;52.046;4.800;2023-10-08T04:46:51;21.17;;;8.40;;
69789;SDS011;57064;52.046;4.800;2023-10-08T04:49:18;31.95;;;9.30;;
69789;SDS011;57064;52.046;4.800;2023-10-08T04:52:01;25.40;;;8.75;;
69789;SDS011;57064;52.046;4.800;2023-10-08T04:54:39;27.83;;;9.13;;
69789;SDS011;57064;52.046;4.800;2023-10-08T04:57:11;23.30;;;8.85;;
69789;SDS011;57064;52.046;4.800;2023-10-08T04:59:48;33.08;;;9.38;;
69789;SDS011;57064;52.046;4.800;2023-10-08T05:02:19;22.50;;;8.30;;
69789;SDS011;57064;52.046;4.800;2023-10-08T05:04:47;29.38;;;8.85;;
69789;SDS011;57064;52.046;4.800;2023-10-08T05:07:20;29.25;;;8.85;;
69789;SDS011;57064;52.046;4.800;2023-10-08T05:10:05;27.75;;;7.85;;
69789;SDS011;57064;52.046;4.800;2023-10-08T05:12:32;28.45;;;7.60;;
69789;SDS011;57064;52.046;4.800;2023-10-08T05:14:58;27.20;;;7.85;;
69789;SDS011;57064;52.046;4.800;2023-10-08T05:17:40;21.88;;;6.70;;
69789;SDS011;57064;52.046;4.800;2023-10-08T05:20:16;27.55;;;7.50;;
69789;SDS011;57064;52.046;4.800;2023-10-08T05:23:05;29.10;;;6.63;;
69789;SDS011;57064;52.046;4.800;2023-10-08T05:25:51;30.98;;;6.28;;
69789;SDS011;57064;52.046;4.800;2023-10-08T05:28:33;24.60;;;6.85;;
69789;SDS011;57064;52.046;4.800;2023-10-08T05:31:24;23.40;;;7.67;;
69789;SDS011;57064;52.046;4.800;2023-10-08T05:34:11;21.60;;;6.10;;
69789;SDS011;57064;52.046;4.800;2023-10-08T05:36:57;26.02;;;6.90;;
69789;SDS011;57064;52.046;4.800;2023-10-08T05:39:26;24.30;;;8.07;;
69789;SDS011;57064;52.046;4.800;2023-10-08T05:42:05;24.77;;;6.05;;
69789;SDS011;57064;52.046;4.800;2023-10-08T05:44:56;25.83;;;6.45;;
69789;SDS011;57064;52.046;4.800;2023-10-08T05:47:35;29.08;;;7.10;;
69789;SDS011;57064;52.046;4.800;2023-10-08T05:50:02;21.13;;;6.70;;
69789;SDS011;57064;52.046;4.800;2023-10-08T05:52:45;19.27;;;5.43;;
69789;SDS011;57064;52.046;4.800;2023-10-08T05:55:32;21.58;;;6.97;;
69789;SDS011;57064;52.046;4.800;2023-10-08T05:58:12;23.92;;;6.32;;
69789;SDS011;57064;52.046;4.800;2023-10-08T06:00:45;21.15;;;7.20;;
69789;SDS011;57064;52.046;4.800;2023-10-08T06:03:15;30.02;;;9.98;;
69789;SDS011;57064;52.046;4.800;2023-10-08T06:05:57;32.53;;;7.75;;
69789;SDS011;57064;52.046;4.800;2023-10-08T06:08:37;34.15;;;8.90;;
69789;SDS011;57064;52.046;4.800;2023-10-08T06:11:14;32.03;;;9.00;;
69789;SDS011;57064;52.046;4.800;2023-10-08T06:14:05;41.33;;;10.82;;
69789;SDS011;57064;52.046;4.800;2023-10-08T06:17:00;43.10;;;11.05;;
69789;SDS011;57064;52.046;4.800;2023-10-08T06:19:48;45.53;;;9.60;;
69789;SDS011;57064;52.046;4.800;2023-10-08T06:22:17;34.85;;;9.35;;
69789;SDS011;57064;52.046;4.800;2023-10-08T06:24:44;39.20;;;10.82;;
69789;SDS011;57064;52.046;4.800;2023-10-08T06:27:10;46.72;;;11.48;;
69789;SDS011;57064;52.046;4.800;2023-10-08T06:29:42;40.58;;;9.23;;
69789;SDS011;57064;52.046;4.800;2023-10-08T06:32:09;27.23;;;7.00;;
69789;SDS011;57064;52.046;4.800;2023-10-08T06:34:37;22.38;;;6.95;;
69789;SDS011;57064;52.046;4.800;2023-10-08T06:37:05;25.27;;;6.10;;
69789;SDS011;57064;52.046;4.800;2023-10-08T06:39:33;21.55;;;6.85;;
69789;SDS011;57064;52.046;4.800;2023-10-08T06:42:12;30.88;;;7.13;;
69789;SDS011;57064;52.046;4.800;2023-10-08T06:44:42;26.83;;;6.03;;
69789;SDS011;57064;52.046;4.800;2023-10-08T06:47:11;34.65;;;8.65;;
69789;SDS011;57064;52.046;4.800;2023-10-08T06:49:40;20.98;;;5.03;;
69789;SDS011;57064;52.046;4.800;2023-10-08T06:52:08;25.55;;;6.13;;
69789;SDS011;57064;52.046;4.800;2023-10-08T06:54:38;30.70;;;8.48;;
69789;SDS011;57064;52.046;4.800;2023-10-08T06:57:04;17.23;;;7.43;;
69789;SDS011;57064;52.046;4.800;2023-10-08T06:59:38;24.27;;;6.88;;
69789;SDS011;57064;52.046;4.800;2023-10-08T07:02:07;19.80;;;5.43;;
69789;SDS011;57064;52.046;4.800;2023-10-08T07:04:35;18.40;;;4.93;;
69789;SDS011;57064;52.046;4.800;2023-10-08T07:07:04;18.10;;;5.22;;
69789;SDS011;57064;52.046;4.800;2023-10-08T07:09:34;16.92;;;5.00;;
69789;SDS011;57064;52.046;4.800;2023-10-08T07:12:01;15.77;;;5.63;;
69789;SDS011;57064;52.046;4.800;2023-10-08T07:14:30;14.45;;;5.40;;
69789;SDS011;57064;52.046;4.800;2023-10-08T07:16:59;14.63;;;5.25;;
69789;SDS011;57064;52.046;4.800;2023-10-08T07:19:28;10.00;;;4.82;;
69789;SDS011;57064;52.046;4.800;2023-10-08T07:22:02;14.13;;;5.25;;
69789;SDS011;57064;52.046;4.800;2023-10-08T07:24:31;18.42;;;5.40;;
69789;SDS011;57064;52.046;4.800;2023-10-08T07:27:03;16.65;;;4.85;;
69789;SDS011;57064;52.046;4.800;2023-10-08T07:29:34;13.77;;;4.97;;
69789;SDS011;57064;52.046;4.800;2023-10-08T07:32:00;15.00;;;5.20;;
69789;SDS011;57064;52.046;4.800;2023-10-08T07:34:35;17.30;;;4.85;;
69789;SDS011;57064;52.046;4.800;2023-10-08T07:37:01;20.73;;;5.30;;
69789;SDS011;57064;52.046;4.800;2023-10-08T07:39:27;19.67;;;4.63;;
69789;SDS011;57064;52.046;4.800;2023-10-08T07:41:57;19.13;;;5.50;;
69789;SDS011;57064;52.046;4.800;2023-10-08T07:44:25;23.90;;;5.80;;
69789;SDS011;57064;52.046;4.800;2023-10-08T07:46:55;18.50;;;4.53;;
69789;SDS011;57064;52.046;4.800;2023-10-08T07:49:24;16.80;;;4.45;;
69789;SDS011;57064;52.046;4.800;2023-10-08T07:51:50;16.50;;;5.82;;
69789;SDS011;57064;52.046;4.800;2023-10-08T07:54:17;21.70;;;5.18;;
69789;SDS011;57064;52.046;4.800;2023-10-08T07:56:46;14.02;;;4.80;;
69789;SDS011;57064;52.046;4.800;2023-10-08T07:59:13;14.20;;;4.22;;
69789;SDS011;57064;52.046;4.800;2023-10-08T08:01:41;13.95;;;3.58;;
69789;SDS011;57064;52.046;4.800;2023-10-08T08:04:12;12.32;;;4.72;;
69789;SDS011;57064;52.046;4.800;2023-10-08T08:06:50;15.25;;;4.18;;
69789;SDS011;57064;52.046;4.800;2023-10-08T08:09:17;9.40;;;3.42;;
69789;SDS011;57064;52.046;4.800;2023-10-08T08:11:48;9.15;;;3.28;;
69789;SDS011;57064;52.046;4.800;2023-10-08T08:14:15;9.75;;;3.17;;
69789;SDS011;57064;52.046;4.800;2023-10-08T08:16:49;10.43;;;3.15;;
69789;SDS011;57064;52.046;4.800;2023-10-08T08:19:16;11.88;;;3.42;;
69789;SDS011;57064;52.046;4.800;2023-10-08T08:21:49;10.90;;;2.80;;
69789;SDS011;57064;52.046;4.800;2023-10-08T08:24:17;10.18;;;2.78;;
69789;SDS011;57064;52.046;4.800;2023-10-08T08:26:56;11.88;;;2.70;;
69789;SDS011;57064;52.046;4.800;2023-10-08T08:29:36;14.88;;;2.95;;
69789;SDS011;57064;52.046;4.800;2023-10-08T08:32:13;11.20;;;3.17;;
69789;SDS011;57064;52.046;4.800;2023-10-08T08:34:46;12.18;;;2.95;;
69789;SDS011;57064;52.046;4.800;2023-10-08T08:37:18;8.05;;;2.63;;
69789;SDS011;57064;52.046;4.800;2023-10-08T08:39:50;10.00;;;2.60;;
69789;SDS011;57064;52.046;4.800;2023-10-08T08:42:17;9.98;;;2.78;;
69789;SDS011;57064;52.046;4.800;2023-10-08T08:44:48;8.35;;;2.67;;
69789;SDS011;57064;52.046;4.800;2023-10-08T08:47:16;9.00;;;2.33;;
69789;SDS011;57064;52.046;4.800;2023-10-08T08:49:43;10.40;;;2.50;;
69789;SDS011;57064;52.046;4.800;2023-10-08T08:52:10;8.05;;;2.08;;
69789;SDS011;57064;52.046;4.800;2023-10-08T08:54:37;10.10;;;2.10;;
69789;SDS011;57064;52.046;4.800;2023-10-08T08:57:04;11.13;;;2.72;;
69789;SDS011;57064;52.046;4.800;2023-10-08T08:59:38;8.60;;;2.58;;
69789;SDS011;57064;52.046;4.800;2023-10-08T09:02:09;9.10;;;2.38;;
69789;SDS011;57064;52.046;4.800;2023-10-08T09:04:39;8.70;;;2.50;;
69789;SDS011;57064;52.046;4.800;2023-10-08T09:07:05;10.77;;;2.63;;
69789;SDS011;57064;52.046;4.800;2023-10-08T09:09:33;11.20;;;2.35;;
69789;SDS011;57064;52.046;4.800;2023-10-08T09:12:03;10.02;;;2.28;;
69789;SDS011;57064;52.046;4.800;2023-10-08T09:14:30;8.80;;;2.80;;
69789;SDS011;57064;52.046;4.800;2023-10-08T09:16:59;10.25;;;2.67;;
69789;SDS011;57064;52.046;4.800;2023-10-08T09:19:26;10.70;;;3.20;;
69789;SDS011;57064;52.046;4.800;2023-10-08T09:24:52;12.30;;;3.35;;
69789;SDS011;57064;52.046;4.800;2023-10-08T09:27:19;11.23;;;3.42;;
69789;SDS011;57064;52.046;4.800;2023-10-08T09:29:46;10.85;;;3.35;;
69789;SDS011;57064;52.046;4.800;2023-10-08T09:32:13;8.75;;;3.30;;
69789;SDS011;57064;52.046;4.800;2023-10-08T09:34:39;10.98;;;3.20;;
69789;SDS011;57064;52.046;4.800;2023-10-08T09:37:05;9.70;;;2.85;;
69789;SDS011;57064;52.046;4.800;2023-10-08T09:39:35;8.35;;;2.83;;
69789;SDS011;57064;52.046;4.800;2023-10-08T09:42:04;8.75;;;2.97;;
69789;SDS011;57064;52.046;4.800;2023-10-08T09:44:36;10.32;;;2.83;;
69789;SDS011;57064;52.046;4.800;2023-10-08T09:47:03;10.13;;;3.08;;
69789;SDS011;57064;52.046;4.800;2023-10-08T09:49:41;11.23;;;3.30;;
69789;SDS011;57064;52.046;4.800;2023-10-08T09:52:23;6.95;;;3.20;;
69789;SDS011;57064;52.046;4.800;2023-10-08T09:55:00;10.02;;;2.88;;
69789;SDS011;57064;52.046;4.800;2023-10-08T09:57:35;9.48;;;3.33;;
69789;SDS011;57064;52.046;4.800;2023-10-08T10:00:02;12.18;;;3.25;;
69789;SDS011;57064;52.046;4.800;2023-10-08T10:02:40;9.73;;;4.03;;
69789;SDS011;57064;52.046;4.800;2023-10-08T10:05:10;10.07;;;3.85;;
69789;SDS011;57064;52.046;4.800;2023-10-08T10:07:43;12.23;;;4.07;;
69789;SDS011;57064;52.046;4.800;2023-10-08T10:10:28;7.63;;;3.30;;
69789;SDS011;57064;52.046;4.800;2023-10-08T10:12:57;9.07;;;3.25;;
69789;SDS011;57064;52.046;4.800;2023-10-08T10:15:24;9.98;;;4.10;;
69789;SDS011;57064;52.046;4.800;2023-10-08T10:17:51;10.95;;;3.80;;
69789;SDS011;57064;52.046;4.800;2023-10-08T10:20:17;9.60;;;3.53;;
69789;SDS011;57064;52.046;4.800;2023-10-08T10:22:45;10.82;;;3.63;;
69789;SDS011;57064;52.046;4.800;2023-10-08T10:25:15;11.50;;;3.90;;
69789;SDS011;57064;52.046;4.800;2023-10-08T10:30:20;7.18;;;3.25;;
69789;SDS011;57064;52.046;4.800;2023-10-08T10:32:51;10.93;;;3.38;;
69789;SDS011;57064;52.046;4.800;2023-10-08T10:35:17;8.05;;;3.42;;
69789;SDS011;57064;52.046;4.800;2023-10-08T10:37:45;9.50;;;3.33;;
69789;SDS011;57064;52.046;4.800;2023-10-08T10:40:21;8.73;;;3.38;;
69789;SDS011;57064;52.046;4.800;2023-10-08T10:43:16;13.90;;;3.85;;
69789;SDS011;57064;52.046;4.800;2023-10-08T10:45:45;11.10;;;3.03;;
69789;SDS011;57064;52.046;4.800;2023-10-08T10:48:12;9.52;;;3.47;;
69789;SDS011;57064;52.046;4.800;2023-10-08T10:50:46;10.95;;;3.95;;
69789;SDS011;57064;52.046;4.800;2023-10-08T10:53:33;11.45;;;2.90;;
69789;SDS011;57064;52.046;4.800;2023-10-08T10:56:23;9.02;;;3.25;;
69789;SDS011;57064;52.046;4.800;2023-10-08T10:58:58;9.02;;;3.08;;
69789;SDS011;57064;52.046;4.800;2023-10-08T11:01:30;10.57;;;3.22;;
69789;SDS011;57064;52.046;4.800;2023-10-08T11:04:09;9.10;;;3.28;;
69789;SDS011;57064;52.046;4.800;2023-10-08T11:06:43;7.63;;;2.67;;
69789;SDS011;57064;52.046;4.800;2023-10-08T11:09:10;6.40;;;2.97;;
69789;SDS011;57064;52.046;4.800;2023-10-08T11:11:40;9.32;;;3.67;;
69789;SDS011;57064;52.046;4.800;2023-10-08T11:14:10;7.07;;;3.20;;
69789;SDS011;57064;52.046;4.800;2023-10-08T11:16:43;6.88;;;3.50;;
69789;SDS011;57064;52.046;4.800;2023-10-08T11:19:10;7.45;;;3.28;;
69789;SDS011;57064;52.046;4.800;2023-10-08T11:21:50;10.98;;;3.33;;
69789;SDS011;57064;52.046;4.800;2023-10-08T11:24:31;8.00;;;3.33;;
69789;SDS011;57064;52.046;4.800;2023-10-08T11:27:01;8.68;;;3.40;;
69789;SDS011;57064;52.046;4.800;2023-10-08T11:32:07;7.85;;;3.17;;
69789;SDS011;57064;52.046;4.800;2023-10-08T11:34:37;7.72;;;3.88;;
69789;SDS011;57064;52.046;4.800;2023-10-08T11:37:04;7.95;;;3.47;;
69789;SDS011;57064;52.046;4.800;2023-10-08T11:39:45;7.25;;;3.90;;
69789;SDS011;57064;52.046;4.800;2023-10-08T11:42:12;8.02;;;3.85;;
69789;SDS011;57064;52.046;4.800;2023-10-08T11:44:56;6.47;;;3.85;;
69789;SDS011;57064;52.046;4.800;2023-10-08T11:47:42;9.40;;;3.85;;
69789;SDS011;57064;52.046;4.800;2023-10-08T11:50:14;11.93;;;4.73;;
69789;SDS011;57064;52.046;4.800;2023-10-08T11:52:46;11.70;;;4.50;;
69789;SDS011;57064;52.046;4.800;2023-10-08T11:55:12;12.52;;;4.30;;
69789;SDS011;57064;52.046;4.800;2023-10-08T11:57:44;9.55;;;4.75;;
69789;SDS011;57064;52.046;4.800;2023-10-08T12:00:12;9.43;;;4.88;;
69789;SDS011;57064;52.046;4.800;2023-10-08T12:02:47;9.15;;;4.20;;
69789;SDS011;57064;52.046;4.800;2023-10-08T12:05:14;9.15;;;4.65;;
69789;SDS011;57064;52.046;4.800;2023-10-08T12:07:48;12.07;;;4.93;;
69789;SDS011;57064;52.046;4.800;2023-10-08T12:10:23;10.35;;;4.68;;
69789;SDS011;57064;52.046;4.800;2023-10-08T12:12:49;11.90;;;5.03;;
69789;SDS011;57064;52.046;4.800;2023-10-08T12:15:22;11.52;;;4.65;;
69789;SDS011;57064;52.046;4.800;2023-10-08T12:17:51;9.75;;;4.70;;
69789;SDS011;57064;52.046;4.800;2023-10-08T12:20:47;10.32;;;4.82;;
69789;SDS011;57064;52.046;4.800;2023-10-08T12:23:13;9.70;;;4.68;;
69789;SDS011;57064;52.046;4.800;2023-10-08T12:25:50;8.05;;;4.20;;
69789;SDS011;57064;52.046;4.800;2023-10-08T12:28:20;11.57;;;4.15;;
69789;SDS011;57064;52.046;4.800;2023-10-08T12:30:48;10.13;;;3.72;;
69789;SDS011;57064;52.046;4.800;2023-10-08T12:33:20;12.15;;;4.10;;
69789;SDS011;57064;52.046;4.800;2023-10-08T12:35:49;9.13;;;4.43;;
69789;SDS011;57064;52.046;4.800;2023-10-08T12:38:18;7.20;;;3.63;;
69789;SDS011;57064;52.046;4.800;2023-10-08T12:40:48;8.18;;;4.13;;
69789;SDS011;57064;52.046;4.800;2023-10-08T12:43:21;10.50;;;4.70;;
69789;SDS011;57064;52.046;4.800;2023-10-08T12:45:51;9.57;;;3.97;;
69789;SDS011;57064;52.046;4.800;2023-10-08T12:48:25;8.23;;;3.92;;
69789;SDS011;57064;52.046;4.800;2023-10-08T12:50:52;6.90;;;3.35;;
69789;SDS011;57064;52.046;4.800;2023-10-08T12:53:30;7.45;;;3.88;;
69789;SDS011;57064;52.046;4.800;2023-10-08T12:56:06;6.93;;;3.97;;
69789;SDS011;57064;52.046;4.800;2023-10-08T12:58:40;9.48;;;4.15;;
69789;SDS011;57064;52.046;4.800;2023-10-08T13:01:09;10.23;;;3.75;;
69789;SDS011;57064;52.046;4.800;2023-10-08T13:03:36;10.27;;;4.15;;
69789;SDS011;57064;52.046;4.800;2023-10-08T13:06:12;7.57;;;4.50;;
69789;SDS011;57064;52.046;4.800;2023-10-08T13:08:53;8.48;;;4.72;;
69789;SDS011;57064;52.046;4.800;2023-10-08T13:11:24;9.10;;;4.28;;
69789;SDS011;57064;52.046;4.800;2023-10-08T13:13:55;11.55;;;4.93;;
69789;SDS011;57064;52.046;4.800;2023-10-08T13:16:22;10.32;;;5.43;;
69789;SDS011;57064;52.046;4.800;2023-10-08T13:18:49;11.68;;;5.72;;
69789;SDS011;57064;52.046;4.800;2023-10-08T13:21:17;18.58;;;5.65;;
69789;SDS011;57064;52.046;4.800;2023-10-08T13:23:50;13.77;;;5.68;;
69789;SDS011;57064;52.046;4.800;2023-10-08T13:26:17;9.10;;;5.15;;
69789;SDS011;57064;52.046;4.800;2023-10-08T13:28:47;10.85;;;5.32;;
69789;SDS011;57064;52.046;4.800;2023-10-08T13:31:13;11.85;;;5.95;;
69789;SDS011;57064;52.046;4.800;2023-10-08T13:33:41;14.73;;;6.43;;
69789;SDS011;57064;52.046;4.800;2023-10-08T13:36:09;10.90;;;5.57;;
69789;SDS011;57064;52.046;4.800;2023-10-08T13:38:38;11.77;;;6.40;;
69789;SDS011;57064;52.046;4.800;2023-10-08T13:41:08;12.88;;;5.72;;
69789;SDS011;57064;52.046;4.800;2023-10-08T13:43:44;12.77;;;5.90;;
69789;SDS011;57064;52.046;4.800;2023-10-08T13:46:15;8.90;;;4.78;;
69789;SDS011;57064;52.046;4.800;2023-10-08T13:48:43;12.15;;;5.90;;
69789;SDS011;57064;52.046;4.800;2023-10-08T13:51:14;10.70;;;5.00;;
69789;SDS011;57064;52.046;4.800;2023-10-08T13:53:52;13.25;;;5.45;;
69789;SDS011;57064;52.046;4.800;2023-10-08T13:56:24;12.65;;;5.10;;
69789;SDS011;57064;52.046;4.800;2023-10-08T13:58:56;15.95;;;5.28;;
69789;SDS011;57064;52.046;4.800;2023-10-08T14:01:32;14.63;;;5.38;;
69789;SDS011;57064;52.046;4.800;2023-10-08T14:03:59;12.35;;;5.50;;
69789;SDS011;57064;52.046;4.800;2023-10-08T14:06:33;10.27;;;5.38;;
69789;SDS011;57064;52.046;4.800;2023-10-08T14:08:59;10.13;;;5.07;;
69789;SDS011;57064;52.046;4.800;2023-10-08T14:11:26;8.60;;;4.53;;
69789;SDS011;57064;52.046;4.800;2023-10-08T14:13:58;11.07;;;4.88;;
69789;SDS011;57064;52.046;4.800;2023-10-08T14:16:27;11.05;;;4.85;;
69789;SDS011;57064;52.046;4.800;2023-10-08T14:18:54;10.88;;;4.20;;
69789;SDS011;57064;52.046;4.800;2023-10-08T14:21:24;9.23;;;4.72;;
69789;SDS011;57064;52.046;4.800;2023-10-08T14:23:58;9.00;;;3.93;;
69789;SDS011;57064;52.046;4.800;2023-10-08T14:26:40;9.32;;;4.47;;
69789;SDS011;57064;52.046;4.800;2023-10-08T14:31:42;13.77;;;4.78;;
69789;SDS011;57064;52.046;4.800;2023-10-08T14:34:09;10.88;;;4.38;;
69789;SDS011;57064;52.046;4.800;2023-10-08T14:39:33;8.90;;;4.47;;
69789;SDS011;57064;52.046;4.800;2023-10-08T14:42:18;9.75;;;3.88;;
69789;SDS011;57064;52.046;4.800;2023-10-08T14:45:03;10.27;;;4.15;;
69789;SDS011;57064;52.046;4.800;2023-10-08T14:47:36;10.45;;;4.18;;
69789;SDS011;57064;52.046;4.800;2023-10-08T14:50:03;8.98;;;3.72;;
69789;SDS011;57064;52.046;4.800;2023-10-08T14:52:30;8.60;;;4.47;;
69789;SDS011;57064;52.046;4.800;2023-10-08T14:54:58;10.20;;;4.22;;
69789;SDS011;57064;52.046;4.800;2023-10-08T14:57:24;13.95;;;4.38;;
69789;SDS011;57064;52.046;4.800;2023-10-08T14:59:51;9.77;;;4.30;;
69789;SDS011;57064;52.046;4.800;2023-10-08T15:02:17;10.85;;;4.40;;
69789;SDS011;57064;52.046;4.800;2023-10-08T15:04:44;10.40;;;4.25;;
69789;SDS011;57064;52.046;4.800;2023-10-08T15:07:10;11.15;;;4.22;;
69789;SDS011;57064;52.046;4.800;2023-10-08T15:09:37;12.25;;;4.75;;
69789;SDS011;57064;52.046;4.800;2023-10-08T15:12:04;10.07;;;4.60;;
69789;SDS011;57064;52.046;4.800;2023-10-08T15:14:34;9.75;;;4.22;;
69789;SDS011;57064;52.046;4.800;2023-10-08T15:17:00;7.88;;;3.67;;